sensor_id;sensor_type;location;lat;lon;timestamp;P1;durP1;ratioP1;P2;durP2;ratioP2
54384;SDS011;40284;52.878;5.998;2023-07-31T00:00:49;4.40;;;3.17;;
54384;SDS011;40284;52.878;5.998;2023-07-31T00:03:15;7.28;;;3.67;;
54384;SDS011;40284;52.878;5.998;2023-07-31T00:05:41;6.57;;;3.55;;
54384;SDS011;40284;52.878;5.998;2023-07-31T00:08:07;6.45;;;4.20;;
54384;SDS011;40284;52.878;5.998;2023-07-31T00:10:33;7.32;;;4.32;;
54384;SDS011;40284;52.878;5.998;2023-07-31T00:13:00;7.72;;;3.80;;
54384;SDS011;40284;52.878;5.998;2023-07-31T00:15:26;6.57;;;3.60;;
54384;SDS011;40284;52.878;5.998;2023-07-31T00:17:52;5.35;;;3.47;;
54384;SDS011;40284;52.878;5.998;2023-07-31T00:20:18;4.55;;;3.03;;
54384;SDS011;40284;52.878;5.998;2023-07-31T00:22:44;5.05;;;2.75;;
54384;SDS011;40284;52.878;5.998;2023-07-31T00:25:10;6.72;;;2.42;;
54384;SDS011;40284;52.878;5.998;2023-07-31T00:27:36;6.88;;;2.80;;
54384;SDS011;40284;52.878;5.998;2023-07-31T00:30:02;3.80;;;2.40;;
54384;SDS011;40284;52.878;5.998;2023-07-31T00:32:29;3.90;;;2.67;;
54384;SDS011;40284;52.878;5.998;2023-07-31T00:34:55;2.60;;;1.90;;
54384;SDS011;40284;52.878;5.998;2023-07-31T00:37:21;3.15;;;1.90;;
54384;SDS011;40284;52.878;5.998;2023-07-31T00:39:47;4.47;;;2.17;;
54384;SDS011;40284;52.878;5.998;2023-07-31T00:42:13;3.75;;;2.10;;
54384;SDS011;40284;52.878;5.998;2023-07-31T00:44:39;4.05;;;2.47;;
54384;SDS011;40284;52.878;5.998;2023-07-31T00:47:05;6.45;;;2.60;;
54384;SDS011;40284;52.878;5.998;2023-07-31T00:49:31;3.65;;;2.63;;
54384;SDS011;40284;52.878;5.998;2023-07-31T00:51:58;4.38;;;1.80;;
54384;SDS011;40284;52.878;5.998;2023-07-31T00:54:25;2.78;;;1.60;;
54384;SDS011;40284;52.878;5.998;2023-07-31T00:56:51;2.78;;;1.80;;
54384;SDS011;40284;52.878;5.998;2023-07-31T00:59:18;2.70;;;1.70;;
54384;SDS011;40284;52.878;5.998;2023-07-31T01:01:44;3.47;;;1.60;;
54384;SDS011;40284;52.878;5.998;2023-07-31T01:04:11;4.78;;;1.60;;
54384;SDS011;40284;52.878;5.998;2023-07-31T01:11:57;3.13;;;1.60;;
54384;SDS011;40284;52.878;5.998;2023-07-31T01:14:27;3.53;;;1.58;;
54384;SDS011;40284;52.878;5.998;2023-07-31T01:16:53;3.92;;;1.73;;
54384;SDS011;40284;52.878;5.998;2023-07-31T01:19:24;1.63;;;1.35;;
54384;SDS011;40284;52.878;5.998;2023-07-31T01:24:20;2.15;;;1.30;;
54384;SDS011;40284;52.878;5.998;2023-07-31T01:26:56;1.95;;;1.30;;
54384;SDS011;40284;52.878;5.998;2023-07-31T01:29:29;1.92;;;1.50;;
54384;SDS011;40284;52.878;5.998;2023-07-31T01:31:58;1.92;;;1.10;;
54384;SDS011;40284;52.878;5.998;2023-07-31T01:34:27;2.17;;;1.40;;
54384;SDS011;40284;52.878;5.998;2023-07-31T01:36:55;3.13;;;1.98;;
54384;SDS011;40284;52.878;5.998;2023-07-31T01:39:21;4.70;;;2.10;;
54384;SDS011;40284;52.878;5.998;2023-07-31T01:41:47;7.07;;;1.70;;
54384;SDS011;40284;52.878;5.998;2023-07-31T01:44:13;2.67;;;1.55;;
54384;SDS011;40284;52.878;5.998;2023-07-31T01:46:39;3.35;;;1.73;;
54384;SDS011;40284;52.878;5.998;2023-07-31T01:49:06;3.78;;;1.95;;
54384;SDS011;40284;52.878;5.998;2023-07-31T01:51:32;3.15;;;1.30;;
54384;SDS011;40284;52.878;5.998;2023-07-31T01:54:01;1.95;;;1.00;;
54384;SDS011;40284;52.878;5.998;2023-07-31T01:56:27;2.22;;;1.20;;
54384;SDS011;40284;52.878;5.998;2023-07-31T01:58:53;4.60;;;2.20;;
54384;SDS011;40284;52.878;5.998;2023-07-31T02:01:19;2.53;;;1.50;;
54384;SDS011;40284;52.878;5.998;2023-07-31T02:03:45;3.45;;;1.17;;
54384;SDS011;40284;52.878;5.998;2023-07-31T02:06:11;3.45;;;1.00;;
54384;SDS011;40284;52.878;5.998;2023-07-31T02:08:37;3.17;;;1.00;;
54384;SDS011;40284;52.878;5.998;2023-07-31T02:11:04;3.50;;;1.33;;
54384;SDS011;40284;52.878;5.998;2023-07-31T02:13:30;3.58;;;1.30;;
54384;SDS011;40284;52.878;5.998;2023-07-31T02:15:56;1.33;;;0.85;;
54384;SDS011;40284;52.878;5.998;2023-07-31T02:18:22;2.80;;;0.90;;
54384;SDS011;40284;52.878;5.998;2023-07-31T02:20:49;2.03;;;1.15;;
54384;SDS011;40284;52.878;5.998;2023-07-31T02:23:16;2.47;;;1.30;;
54384;SDS011;40284;52.878;5.998;2023-07-31T02:25:43;3.95;;;1.42;;
54384;SDS011;40284;52.878;5.998;2023-07-31T02:28:09;1.95;;;1.15;;
54384;SDS011;40284;52.878;5.998;2023-07-31T02:30:35;11.55;;;1.52;;
54384;SDS011;40284;52.878;5.998;2023-07-31T02:33:01;5.07;;;1.50;;
54384;SDS011;40284;52.878;5.998;2023-07-31T02:35:27;5.53;;;1.48;;
54384;SDS011;40284;52.878;5.998;2023-07-31T02:37:53;3.92;;;1.30;;
54384;SDS011;40284;52.878;5.998;2023-07-31T02:40:19;1.58;;;0.90;;
54384;SDS011;40284;52.878;5.998;2023-07-31T02:42:45;3.75;;;1.35;;
54384;SDS011;40284;52.878;5.998;2023-07-31T02:45:11;3.53;;;1.13;;
54384;SDS011;40284;52.878;5.998;2023-07-31T02:47:37;2.88;;;1.17;;
54384;SDS011;40284;52.878;5.998;2023-07-31T02:50:03;2.95;;;1.20;;
54384;SDS011;40284;52.878;5.998;2023-07-31T02:52:29;2.65;;;1.00;;
54384;SDS011;40284;52.878;5.998;2023-07-31T02:54:55;5.15;;;1.20;;
54384;SDS011;40284;52.878;5.998;2023-07-31T02:57:21;5.90;;;1.55;;
54384;SDS011;40284;52.878;5.998;2023-07-31T02:59:48;4.45;;;1.15;;
54384;SDS011;40284;52.878;5.998;2023-07-31T03:02:14;2.15;;;0.80;;
54384;SDS011;40284;52.878;5.998;2023-07-31T03:04:40;2.38;;;0.93;;
54384;SDS011;40284;52.878;5.998;2023-07-31T03:07:06;1.50;;;0.70;;
54384;SDS011;40284;52.878;5.998;2023-07-31T03:09:32;1.27;;;0.60;;
54384;SDS011;40284;52.878;5.998;2023-07-31T03:11:58;1.88;;;0.82;;
54384;SDS011;40284;52.878;5.998;2023-07-31T03:14:24;1.35;;;0.80;;
54384;SDS011;40284;52.878;5.998;2023-07-31T03:16:51;1.42;;;0.70;;
54384;SDS011;40284;52.878;5.998;2023-07-31T03:19:18;2.17;;;1.00;;
54384;SDS011;40284;52.878;5.998;2023-07-31T03:21:44;2.35;;;1.10;;
54384;SDS011;40284;52.878;5.998;2023-07-31T03:24:10;4.50;;;1.50;;
54384;SDS011;40284;52.878;5.998;2023-07-31T03:26:37;1.92;;;1.02;;
54384;SDS011;40284;52.878;5.998;2023-07-31T03:29:06;3.47;;;1.23;;
54384;SDS011;40284;52.878;5.998;2023-07-31T03:31:32;4.40;;;1.35;;
54384;SDS011;40284;52.878;5.998;2023-07-31T03:33:58;4.78;;;1.30;;
54384;SDS011;40284;52.878;5.998;2023-07-31T03:36:24;2.03;;;1.23;;
54384;SDS011;40284;52.878;5.998;2023-07-31T03:38:53;2.60;;;1.15;;
54384;SDS011;40284;52.878;5.998;2023-07-31T03:41:20;5.70;;;1.45;;
54384;SDS011;40284;52.878;5.998;2023-07-31T03:43:50;4.35;;;1.60;;
54384;SDS011;40284;52.878;5.998;2023-07-31T03:46:21;3.03;;;1.20;;
54384;SDS011;40284;52.878;5.998;2023-07-31T03:48:48;9.00;;;1.92;;
54384;SDS011;40284;52.878;5.998;2023-07-31T03:51:14;6.70;;;2.25;;
54384;SDS011;40284;52.878;5.998;2023-07-31T03:53:40;5.60;;;2.58;;
54384;SDS011;40284;52.878;5.998;2023-07-31T03:56:06;10.18;;;3.72;;
54384;SDS011;40284;52.878;5.998;2023-07-31T03:58:32;8.60;;;3.72;;
54384;SDS011;40284;52.878;5.998;2023-07-31T04:00:58;7.72;;;4.43;;
54384;SDS011;40284;52.878;5.998;2023-07-31T04:03:24;16.13;;;6.22;;
54384;SDS011;40284;52.878;5.998;2023-07-31T04:05:50;16.20;;;6.00;;
54384;SDS011;40284;52.878;5.998;2023-07-31T04:08:16;17.00;;;6.88;;
54384;SDS011;40284;52.878;5.998;2023-07-31T04:10:42;17.63;;;6.63;;
54384;SDS011;40284;52.878;5.998;2023-07-31T04:13:08;19.65;;;7.45;;
54384;SDS011;40284;52.878;5.998;2023-07-31T04:15:34;20.55;;;7.30;;
54384;SDS011;40284;52.878;5.998;2023-07-31T04:18:00;21.48;;;8.25;;
54384;SDS011;40284;52.878;5.998;2023-07-31T04:20:26;23.45;;;9.45;;
54384;SDS011;40284;52.878;5.998;2023-07-31T04:22:52;25.85;;;8.07;;
54384;SDS011;40284;52.878;5.998;2023-07-31T04:25:18;22.48;;;7.82;;
54384;SDS011;40284;52.878;5.998;2023-07-31T04:27:44;23.35;;;7.97;;
54384;SDS011;40284;52.878;5.998;2023-07-31T04:30:10;18.35;;;8.52;;
54384;SDS011;40284;52.878;5.998;2023-07-31T04:32:37;24.02;;;7.85;;
54384;SDS011;40284;52.878;5.998;2023-07-31T04:35:03;28.35;;;9.23;;
54384;SDS011;40284;52.878;5.998;2023-07-31T04:37:29;16.00;;;8.23;;
54384;SDS011;40284;52.878;5.998;2023-07-31T04:39:55;24.17;;;8.38;;
54384;SDS011;40284;52.878;5.998;2023-07-31T04:42:21;22.92;;;8.55;;
54384;SDS011;40284;52.878;5.998;2023-07-31T04:44:47;35.65;;;10.35;;
54384;SDS011;40284;52.878;5.998;2023-07-31T04:47:13;24.95;;;8.77;;
54384;SDS011;40284;52.878;5.998;2023-07-31T04:49:39;24.17;;;8.00;;
54384;SDS011;40284;52.878;5.998;2023-07-31T04:52:05;29.20;;;8.82;;
54384;SDS011;40284;52.878;5.998;2023-07-31T04:54:31;29.15;;;9.95;;
54384;SDS011;40284;52.878;5.998;2023-07-31T04:56:57;26.00;;;9.13;;
54384;SDS011;40284;52.878;5.998;2023-07-31T04:59:23;28.45;;;8.93;;
54384;SDS011;40284;52.878;5.998;2023-07-31T05:01:49;26.92;;;10.10;;
54384;SDS011;40284;52.878;5.998;2023-07-31T05:04:15;29.35;;;8.75;;
54384;SDS011;40284;52.878;5.998;2023-07-31T05:06:42;23.83;;;8.95;;
54384;SDS011;40284;52.878;5.998;2023-07-31T05:09:08;26.25;;;9.18;;
54384;SDS011;40284;52.878;5.998;2023-07-31T05:11:34;34.25;;;9.98;;
54384;SDS011;40284;52.878;5.998;2023-07-31T05:14:00;30.20;;;9.50;;
54384;SDS011;40284;52.878;5.998;2023-07-31T05:16:27;22.25;;;8.82;;
54384;SDS011;40284;52.878;5.998;2023-07-31T05:18:53;28.83;;;8.10;;
54384;SDS011;40284;52.878;5.998;2023-07-31T05:21:19;29.73;;;9.00;;
54384;SDS011;40284;52.878;5.998;2023-07-31T05:23:45;25.83;;;9.50;;
54384;SDS011;40284;52.878;5.998;2023-07-31T05:26:12;26.10;;;9.13;;
54384;SDS011;40284;52.878;5.998;2023-07-31T05:28:38;25.58;;;8.57;;
54384;SDS011;40284;52.878;5.998;2023-07-31T05:31:05;24.48;;;7.95;;
54384;SDS011;40284;52.878;5.998;2023-07-31T05:33:31;25.70;;;8.85;;
54384;SDS011;40284;52.878;5.998;2023-07-31T05:35:58;23.92;;;9.23;;
54384;SDS011;40284;52.878;5.998;2023-07-31T05:38:24;27.95;;;10.48;;
54384;SDS011;40284;52.878;5.998;2023-07-31T05:40:50;28.58;;;9.00;;
54384;SDS011;40284;52.878;5.998;2023-07-31T05:43:16;32.30;;;8.63;;
54384;SDS011;40284;52.878;5.998;2023-07-31T05:45:42;24.65;;;8.85;;
54384;SDS011;40284;52.878;5.998;2023-07-31T05:48:08;24.83;;;8.95;;
54384;SDS011;40284;52.878;5.998;2023-07-31T05:50:34;20.55;;;7.97;;
54384;SDS011;40284;52.878;5.998;2023-07-31T05:53:02;29.00;;;8.15;;
54384;SDS011;40284;52.878;5.998;2023-07-31T05:55:28;23.85;;;7.95;;
54384;SDS011;40284;52.878;5.998;2023-07-31T05:57:54;23.50;;;8.32;;
54384;SDS011;40284;52.878;5.998;2023-07-31T06:00:20;20.92;;;8.57;;
54384;SDS011;40284;52.878;5.998;2023-07-31T06:02:47;22.75;;;7.68;;
54384;SDS011;40284;52.878;5.998;2023-07-31T06:05:13;22.02;;;8.55;;
54384;SDS011;40284;52.878;5.998;2023-07-31T06:07:39;32.20;;;8.43;;
54384;SDS011;40284;52.878;5.998;2023-07-31T06:10:05;23.65;;;7.00;;
54384;SDS011;40284;52.878;5.998;2023-07-31T06:12:32;24.60;;;7.45;;
54384;SDS011;40284;52.878;5.998;2023-07-31T06:14:58;24.27;;;7.90;;
54384;SDS011;40284;52.878;5.998;2023-07-31T06:17:24;17.88;;;6.68;;
54384;SDS011;40284;52.878;5.998;2023-07-31T06:19:51;23.15;;;7.78;;
54384;SDS011;40284;52.878;5.998;2023-07-31T06:22:17;20.45;;;7.70;;
54384;SDS011;40284;52.878;5.998;2023-07-31T06:24:43;25.25;;;8.85;;
54384;SDS011;40284;52.878;5.998;2023-07-31T06:27:10;21.52;;;8.10;;
54384;SDS011;40284;52.878;5.998;2023-07-31T06:29:36;20.67;;;7.30;;
54384;SDS011;40284;52.878;5.998;2023-07-31T06:32:02;23.98;;;6.75;;
54384;SDS011;40284;52.878;5.998;2023-07-31T06:34:28;18.52;;;7.05;;
54384;SDS011;40284;52.878;5.998;2023-07-31T06:36:55;14.80;;;5.07;;
54384;SDS011;40284;52.878;5.998;2023-07-31T06:39:21;21.40;;;5.60;;
54384;SDS011;40284;52.878;5.998;2023-07-31T06:41:47;17.17;;;5.68;;
54384;SDS011;40284;52.878;5.998;2023-07-31T06:44:14;11.43;;;5.03;;
54384;SDS011;40284;52.878;5.998;2023-07-31T06:46:40;10.60;;;4.55;;
54384;SDS011;40284;52.878;5.998;2023-07-31T06:49:06;11.27;;;5.65;;
54384;SDS011;40284;52.878;5.998;2023-07-31T06:51:32;14.13;;;4.80;;
54384;SDS011;40284;52.878;5.998;2023-07-31T06:53:58;11.32;;;4.78;;
54384;SDS011;40284;52.878;5.998;2023-07-31T06:56:24;8.73;;;4.03;;
54384;SDS011;40284;52.878;5.998;2023-07-31T06:58:51;9.50;;;3.80;;
54384;SDS011;40284;52.878;5.998;2023-07-31T07:01:17;9.30;;;4.03;;
54384;SDS011;40284;52.878;5.998;2023-07-31T07:03:43;7.72;;;4.18;;
54384;SDS011;40284;52.878;5.998;2023-07-31T07:06:10;6.88;;;3.92;;
54384;SDS011;40284;52.878;5.998;2023-07-31T07:08:36;6.32;;;3.45;;
54384;SDS011;40284;52.878;5.998;2023-07-31T07:11:02;6.85;;;3.10;;
54384;SDS011;40284;52.878;5.998;2023-07-31T07:13:28;7.45;;;3.17;;
54384;SDS011;40284;52.878;5.998;2023-07-31T07:15:54;4.15;;;2.38;;
54384;SDS011;40284;52.878;5.998;2023-07-31T07:18:20;7.15;;;3.17;;
54384;SDS011;40284;52.878;5.998;2023-07-31T07:20:50;5.13;;;2.45;;
54384;SDS011;40284;52.878;5.998;2023-07-31T07:23:17;3.38;;;2.20;;
54384;SDS011;40284;52.878;5.998;2023-07-31T07:25:43;3.35;;;2.15;;
54384;SDS011;40284;52.878;5.998;2023-07-31T07:28:09;3.35;;;2.30;;
54384;SDS011;40284;52.878;5.998;2023-07-31T07:30:36;3.55;;;2.08;;
54384;SDS011;40284;52.878;5.998;2023-07-31T07:33:02;5.03;;;1.90;;
54384;SDS011;40284;52.878;5.998;2023-07-31T07:35:28;3.17;;;1.92;;
54384;SDS011;40284;52.878;5.998;2023-07-31T07:37:54;6.30;;;1.75;;
54384;SDS011;40284;52.878;5.998;2023-07-31T07:40:21;3.67;;;1.90;;
54384;SDS011;40284;52.878;5.998;2023-07-31T07:42:47;2.85;;;1.80;;
54384;SDS011;40284;52.878;5.998;2023-07-31T07:45:13;2.95;;;1.50;;
54384;SDS011;40284;52.878;5.998;2023-07-31T07:47:42;2.70;;;1.77;;
54384;SDS011;40284;52.878;5.998;2023-07-31T07:50:09;3.92;;;1.80;;
54384;SDS011;40284;52.878;5.998;2023-07-31T07:52:35;3.22;;;1.88;;
54384;SDS011;40284;52.878;5.998;2023-07-31T07:55:01;4.72;;;2.00;;
54384;SDS011;40284;52.878;5.998;2023-07-31T07:57:28;3.15;;;1.77;;
54384;SDS011;40284;52.878;5.998;2023-07-31T07:59:54;2.20;;;1.60;;
54384;SDS011;40284;52.878;5.998;2023-07-31T08:02:21;2.88;;;1.63;;
54384;SDS011;40284;52.878;5.998;2023-07-31T08:04:47;2.65;;;1.77;;
54384;SDS011;40284;52.878;5.998;2023-07-31T08:07:14;2.67;;;1.70;;
54384;SDS011;40284;52.878;5.998;2023-07-31T08:09:40;2.33;;;1.40;;
54384;SDS011;40284;52.878;5.998;2023-07-31T08:12:06;2.67;;;1.73;;
54384;SDS011;40284;52.878;5.998;2023-07-31T08:14:32;2.15;;;1.00;;
54384;SDS011;40284;52.878;5.998;2023-07-31T08:16:58;2.78;;;1.58;;
54384;SDS011;40284;52.878;5.998;2023-07-31T08:19:24;4.30;;;1.55;;
54384;SDS011;40284;52.878;5.998;2023-07-31T08:21:50;3.17;;;1.35;;
54384;SDS011;40284;52.878;5.998;2023-07-31T08:24:16;2.92;;;1.55;;
54384;SDS011;40284;52.878;5.998;2023-07-31T08:26:42;2.83;;;1.52;;
54384;SDS011;40284;52.878;5.998;2023-07-31T08:29:08;3.05;;;1.65;;
54384;SDS011;40284;52.878;5.998;2023-07-31T08:31:35;3.15;;;1.42;;
54384;SDS011;40284;52.878;5.998;2023-07-31T08:34:01;2.13;;;1.30;;
54384;SDS011;40284;52.878;5.998;2023-07-31T08:36:27;1.65;;;1.00;;
54384;SDS011;40284;52.878;5.998;2023-07-31T08:38:53;1.98;;;1.05;;
54384;SDS011;40284;52.878;5.998;2023-07-31T08:41:19;2.13;;;1.20;;
54384;SDS011;40284;52.878;5.998;2023-07-31T08:43:45;1.48;;;0.95;;
54384;SDS011;40284;52.878;5.998;2023-07-31T08:46:12;1.73;;;1.20;;
54384;SDS011;40284;52.878;5.998;2023-07-31T08:48:41;1.50;;;1.17;;
54384;SDS011;40284;52.878;5.998;2023-07-31T08:51:08;1.90;;;0.88;;
54384;SDS011;40284;52.878;5.998;2023-07-31T08:53:34;2.90;;;1.00;;
54384;SDS011;40284;52.878;5.998;2023-07-31T08:56:00;0.90;;;0.70;;
54384;SDS011;40284;52.878;5.998;2023-07-31T08:58:27;1.10;;;0.80;;
54384;SDS011;40284;52.878;5.998;2023-07-31T09:00:54;2.20;;;0.90;;
54384;SDS011;40284;52.878;5.998;2023-07-31T09:03:21;1.17;;;0.80;;
54384;SDS011;40284;52.878;5.998;2023-07-31T09:05:47;1.65;;;1.00;;
54384;SDS011;40284;52.878;5.998;2023-07-31T09:08:15;0.90;;;0.70;;
54384;SDS011;40284;52.878;5.998;2023-07-31T09:10:44;3.55;;;0.80;;
54384;SDS011;40284;52.878;5.998;2023-07-31T09:13:15;1.45;;;0.70;;
54384;SDS011;40284;52.878;5.998;2023-07-31T09:15:42;1.20;;;0.70;;
54384;SDS011;40284;52.878;5.998;2023-07-31T09:18:09;0.63;;;0.55;;
54384;SDS011;40284;52.878;5.998;2023-07-31T09:20:35;0.85;;;0.55;;
54384;SDS011;40284;52.878;5.998;2023-07-31T09:23:06;0.52;;;0.50;;
54384;SDS011;40284;52.878;5.998;2023-07-31T09:25:33;1.35;;;0.60;;
54384;SDS011;40284;52.878;5.998;2023-07-31T09:28:03;1.65;;;0.50;;
54384;SDS011;40284;52.878;5.998;2023-07-31T09:30:30;2.35;;;0.50;;
54384;SDS011;40284;52.878;5.998;2023-07-31T09:33:14;0.65;;;0.50;;
54384;SDS011;40284;52.878;5.998;2023-07-31T09:35:40;0.45;;;0.40;;
54384;SDS011;40284;52.878;5.998;2023-07-31T09:38:07;0.68;;;0.50;;
54384;SDS011;40284;52.878;5.998;2023-07-31T09:40:44;0.82;;;0.50;;
54384;SDS011;40284;52.878;5.998;2023-07-31T09:43:11;0.77;;;0.50;;
54384;SDS011;40284;52.878;5.998;2023-07-31T09:45:38;0.32;;;0.32;;
54384;SDS011;40284;52.878;5.998;2023-07-31T09:48:08;0.82;;;0.50;;
54384;SDS011;40284;52.878;5.998;2023-07-31T09:50:36;0.55;;;0.50;;
54384;SDS011;40284;52.878;5.998;2023-07-31T09:53:03;2.83;;;0.70;;
54384;SDS011;40284;52.878;5.998;2023-07-31T09:55:29;0.77;;;0.50;;
54384;SDS011;40284;52.878;5.998;2023-07-31T09:57:57;1.25;;;0.50;;
54384;SDS011;40284;52.878;5.998;2023-07-31T10:00:23;1.10;;;0.70;;
54384;SDS011;40284;52.878;5.998;2023-07-31T10:02:53;2.13;;;0.80;;
54384;SDS011;40284;52.878;5.998;2023-07-31T10:05:20;2.45;;;1.15;;
54384;SDS011;40284;52.878;5.998;2023-07-31T10:07:51;2.50;;;1.10;;
54384;SDS011;40284;52.878;5.998;2023-07-31T10:10:17;2.08;;;1.10;;
54384;SDS011;40284;52.878;5.998;2023-07-31T10:12:45;3.72;;;1.20;;
54384;SDS011;40284;52.878;5.998;2023-07-31T10:15:12;3.33;;;1.10;;
54384;SDS011;40284;52.878;5.998;2023-07-31T10:17:38;8.48;;;2.13;;
54384;SDS011;40284;52.878;5.998;2023-07-31T10:20:04;4.60;;;1.25;;
54384;SDS011;40284;52.878;5.998;2023-07-31T10:22:31;4.05;;;1.52;;
54384;SDS011;40284;52.878;5.998;2023-07-31T10:24:59;3.10;;;1.35;;
54384;SDS011;40284;52.878;5.998;2023-07-31T10:27:25;3.22;;;1.20;;
54384;SDS011;40284;52.878;5.998;2023-07-31T10:29:52;4.18;;;1.75;;
54384;SDS011;40284;52.878;5.998;2023-07-31T10:32:18;4.88;;;1.30;;
54384;SDS011;40284;52.878;5.998;2023-07-31T10:34:45;6.45;;;1.90;;
54384;SDS011;40284;52.878;5.998;2023-07-31T10:37:22;2.88;;;1.45;;
54384;SDS011;40284;52.878;5.998;2023-07-31T10:42:27;3.58;;;1.00;;
54384;SDS011;40284;52.878;5.998;2023-07-31T10:45:04;3.88;;;1.20;;
54384;SDS011;40284;52.878;5.998;2023-07-31T10:48:17;2.15;;;0.82;;
54384;SDS011;40284;52.878;5.998;2023-07-31T10:50:25;2.58;;;0.98;;
54384;SDS011;40284;52.878;5.998;2023-07-31T10:52:53;2.15;;;1.10;;
54384;SDS011;40284;52.878;5.998;2023-07-31T10:57:52;1.10;;;0.65;;
54384;SDS011;40284;52.878;5.998;2023-07-31T11:03:07;0.65;;;0.52;;
54384;SDS011;40284;52.878;5.998;2023-07-31T11:10:39;1.45;;;0.80;;
54384;SDS011;40284;52.878;5.998;2023-07-31T11:13:06;5.95;;;1.10;;
54384;SDS011;40284;52.878;5.998;2023-07-31T11:15:32;4.13;;;1.15;;
54384;SDS011;40284;52.878;5.998;2023-07-31T11:17:59;2.10;;;1.08;;
54384;SDS011;40284;52.878;5.998;2023-07-31T11:20:29;2.42;;;0.98;;
54384;SDS011;40284;52.878;5.998;2023-07-31T11:22:58;1.95;;;1.00;;
54384;SDS011;40284;52.878;5.998;2023-07-31T11:25:24;5.18;;;1.50;;
54384;SDS011;40284;52.878;5.998;2023-07-31T11:27:50;3.97;;;1.38;;
54384;SDS011;40284;52.878;5.998;2023-07-31T11:30:19;7.85;;;2.03;;
54384;SDS011;40284;52.878;5.998;2023-07-31T11:32:45;4.65;;;1.75;;
54384;SDS011;40284;52.878;5.998;2023-07-31T11:35:14;5.38;;;1.73;;
54384;SDS011;40284;52.878;5.998;2023-07-31T11:37:41;4.28;;;1.50;;
54384;SDS011;40284;52.878;5.998;2023-07-31T11:40:07;2.75;;;1.45;;
54384;SDS011;40284;52.878;5.998;2023-07-31T11:42:36;4.03;;;1.60;;
54384;SDS011;40284;52.878;5.998;2023-07-31T11:45:03;3.47;;;2.00;;
54384;SDS011;40284;52.878;5.998;2023-07-31T11:47:30;6.50;;;2.28;;
54384;SDS011;40284;52.878;5.998;2023-07-31T11:49:59;4.95;;;1.70;;
54384;SDS011;40284;52.878;5.998;2023-07-31T11:52:26;4.45;;;1.80;;
54384;SDS011;40284;52.878;5.998;2023-07-31T11:54:52;3.65;;;1.52;;
54384;SDS011;40284;52.878;5.998;2023-07-31T11:57:18;3.50;;;1.27;;
54384;SDS011;40284;52.878;5.998;2023-07-31T11:59:45;3.53;;;1.33;;
54384;SDS011;40284;52.878;5.998;2023-07-31T12:02:11;2.30;;;1.50;;
54384;SDS011;40284;52.878;5.998;2023-07-31T12:04:37;2.90;;;1.52;;
54384;SDS011;40284;52.878;5.998;2023-07-31T12:07:04;2.75;;;1.42;;
54384;SDS011;40284;52.878;5.998;2023-07-31T12:09:30;3.83;;;1.10;;
54384;SDS011;40284;52.878;5.998;2023-07-31T12:11:56;2.70;;;1.20;;
54384;SDS011;40284;52.878;5.998;2023-07-31T12:14:26;2.47;;;1.15;;
54384;SDS011;40284;52.878;5.998;2023-07-31T12:16:56;3.00;;;1.48;;
54384;SDS011;40284;52.878;5.998;2023-07-31T12:19:23;3.83;;;2.17;;
54384;SDS011;40284;52.878;5.998;2023-07-31T12:21:49;5.00;;;2.10;;
54384;SDS011;40284;52.878;5.998;2023-07-31T12:24:17;8.65;;;2.40;;
54384;SDS011;40284;52.878;5.998;2023-07-31T12:26:45;6.40;;;2.85;;
54384;SDS011;40284;52.878;5.998;2023-07-31T12:29:14;6.47;;;2.65;;
54384;SDS011;40284;52.878;5.998;2023-07-31T12:31:40;5.80;;;2.97;;
54384;SDS011;40284;52.878;5.998;2023-07-31T12:34:16;5.63;;;2.58;;
54384;SDS011;40284;52.878;5.998;2023-07-31T12:36:43;12.15;;;2.60;;
54384;SDS011;40284;52.878;5.998;2023-07-31T12:39:10;11.32;;;3.30;;
54384;SDS011;40284;52.878;5.998;2023-07-31T12:41:36;7.63;;;3.15;;
54384;SDS011;40284;52.878;5.998;2023-07-31T12:44:02;10.32;;;2.90;;
54384;SDS011;40284;52.878;5.998;2023-07-31T12:46:28;9.13;;;2.90;;
54384;SDS011;40284;52.878;5.998;2023-07-31T12:48:54;9.02;;;3.08;;
54384;SDS011;40284;52.878;5.998;2023-07-31T12:51:21;8.25;;;3.03;;
54384;SDS011;40284;52.878;5.998;2023-07-31T12:53:47;8.32;;;3.75;;
54384;SDS011;40284;52.878;5.998;2023-07-31T12:56:13;9.23;;;2.58;;
54384;SDS011;40284;52.878;5.998;2023-07-31T12:58:39;11.32;;;2.83;;
54384;SDS011;40284;52.878;5.998;2023-07-31T13:01:05;10.38;;;3.28;;
54384;SDS011;40284;52.878;5.998;2023-07-31T13:03:31;10.75;;;3.10;;
54384;SDS011;40284;52.878;5.998;2023-07-31T13:05:57;12.25;;;3.20;;
54384;SDS011;40284;52.878;5.998;2023-07-31T13:08:23;7.70;;;3.08;;
54384;SDS011;40284;52.878;5.998;2023-07-31T13:10:50;15.60;;;3.88;;
54384;SDS011;40284;52.878;5.998;2023-07-31T13:13:16;15.40;;;3.35;;
54384;SDS011;40284;52.878;5.998;2023-07-31T13:15:43;14.35;;;3.30;;
54384;SDS011;40284;52.878;5.998;2023-07-31T13:18:09;13.57;;;3.45;;
54384;SDS011;40284;52.878;5.998;2023-07-31T13:20:35;11.50;;;4.72;;
54384;SDS011;40284;52.878;5.998;2023-07-31T13:23:01;7.80;;;3.22;;
54384;SDS011;40284;52.878;5.998;2023-07-31T13:25:27;11.27;;;4.10;;
54384;SDS011;40284;52.878;5.998;2023-07-31T13:27:54;11.30;;;3.67;;
54384;SDS011;40284;52.878;5.998;2023-07-31T13:30:21;11.63;;;3.83;;
54384;SDS011;40284;52.878;5.998;2023-07-31T13:32:47;9.13;;;3.25;;
54384;SDS011;40284;52.878;5.998;2023-07-31T13:35:13;12.25;;;4.13;;
54384;SDS011;40284;52.878;5.998;2023-07-31T13:37:39;13.48;;;4.22;;
54384;SDS011;40284;52.878;5.998;2023-07-31T13:40:05;9.38;;;3.88;;
54384;SDS011;40284;52.878;5.998;2023-07-31T13:42:32;12.95;;;3.72;;
54384;SDS011;40284;52.878;5.998;2023-07-31T13:44:58;7.15;;;3.15;;
54384;SDS011;40284;52.878;5.998;2023-07-31T13:47:24;9.32;;;3.53;;
54384;SDS011;40284;52.878;5.998;2023-07-31T13:49:50;12.35;;;3.33;;
54384;SDS011;40284;52.878;5.998;2023-07-31T13:52:16;10.88;;;3.53;;
54384;SDS011;40284;52.878;5.998;2023-07-31T13:54:42;10.95;;;3.45;;
54384;SDS011;40284;52.878;5.998;2023-07-31T13:57:08;8.75;;;3.53;;
54384;SDS011;40284;52.878;5.998;2023-07-31T13:59:34;12.05;;;3.47;;
54384;SDS011;40284;52.878;5.998;2023-07-31T14:02:02;9.00;;;3.92;;
54384;SDS011;40284;52.878;5.998;2023-07-31T14:04:28;13.52;;;3.45;;
54384;SDS011;40284;52.878;5.998;2023-07-31T14:06:55;11.80;;;4.43;;
54384;SDS011;40284;52.878;5.998;2023-07-31T14:09:21;11.32;;;4.10;;
54384;SDS011;40284;52.878;5.998;2023-07-31T14:11:48;12.43;;;3.50;;
54384;SDS011;40284;52.878;5.998;2023-07-31T14:14:14;5.40;;;2.35;;
54384;SDS011;40284;52.878;5.998;2023-07-31T14:16:41;5.85;;;2.58;;
54384;SDS011;40284;52.878;5.998;2023-07-31T14:19:07;7.15;;;2.75;;
54384;SDS011;40284;52.878;5.998;2023-07-31T14:21:33;9.90;;;3.00;;
54384;SDS011;40284;52.878;5.998;2023-07-31T14:23:59;6.32;;;2.63;;
54384;SDS011;40284;52.878;5.998;2023-07-31T14:26:25;11.70;;;3.05;;
54384;SDS011;40284;52.878;5.998;2023-07-31T14:28:52;6.68;;;2.38;;
54384;SDS011;40284;52.878;5.998;2023-07-31T14:31:18;8.15;;;2.67;;
54384;SDS011;40284;52.878;5.998;2023-07-31T14:33:44;13.55;;;2.65;;
54384;SDS011;40284;52.878;5.998;2023-07-31T14:36:10;8.18;;;2.72;;
54384;SDS011;40284;52.878;5.998;2023-07-31T14:38:36;8.48;;;2.97;;
54384;SDS011;40284;52.878;5.998;2023-07-31T14:41:02;9.40;;;2.60;;
54384;SDS011;40284;52.878;5.998;2023-07-31T14:43:28;9.40;;;2.63;;
54384;SDS011;40284;52.878;5.998;2023-07-31T14:45:54;9.05;;;3.00;;
54384;SDS011;40284;52.878;5.998;2023-07-31T14:48:25;8.90;;;3.72;;
54384;SDS011;40284;52.878;5.998;2023-07-31T14:50:51;10.02;;;2.97;;
54384;SDS011;40284;52.878;5.998;2023-07-31T14:53:17;6.45;;;2.38;;
54384;SDS011;40284;52.878;5.998;2023-07-31T14:55:43;9.57;;;3.20;;
54384;SDS011;40284;52.878;5.998;2023-07-31T14:58:09;7.55;;;3.00;;
54384;SDS011;40284;52.878;5.998;2023-07-31T15:00:36;7.78;;;2.60;;